sensor_id;sensor_type;location;lat;lon;timestamp;temperature;humidity
24152;DHT22;12311;50.866;4.332;2023-03-04T05:19:23;7.00;99.90
24152;DHT22;12311;50.866;4.332;2023-03-04T05:21:49;6.90;99.90
24152;DHT22;12311;50.866;4.332;2023-03-04T05:24:15;6.90;99.90
24152;DHT22;12311;50.866;4.332;2023-03-04T05:26:40;6.90;99.90
24152;DHT22;12311;50.866;4.332;2023-03-04T05:29:06;6.90;99.90
24152;DHT22;12311;50.866;4.332;2023-03-04T05:31:32;6.80;99.90
24152;DHT22;12311;50.866;4.332;2023-03-04T05:33:57;6.80;99.90
24152;DHT22;12311;50.866;4.332;2023-03-04T05:36:23;6.80;99.90
24152;DHT22;12311;50.866;4.332;2023-03-04T05:38:49;6.90;99.90
24152;DHT22;12311;50.866;4.332;2023-03-04T05:41:14;6.90;99.90
24152;DHT22;12311;50.866;4.332;2023-03-04T05:43:43;6.90;99.90
24152;DHT22;12311;50.866;4.332;2023-03-04T05:46:16;6.90;99.90
24152;DHT22;12311;50.866;4.332;2023-03-04T05:48:43;6.90;99.90
24152;DHT22;12311;50.866;4.332;2023-03-04T05:51:09;7.00;99.90
24152;DHT22;12311;50.866;4.332;2023-03-04T05:53:35;7.00;99.90
24152;DHT22;12311;50.866;4.332;2023-03-04T05:56:12;6.90;99.90
24152;DHT22;12311;50.866;4.332;2023-03-04T05:58:38;6.90;99.90
24152;DHT22;12311;50.866;4.332;2023-03-04T06:01:04;6.90;99.90
24152;DHT22;12311;50.866;4.332;2023-03-04T06:03:30;6.90;99.90
24152;DHT22;12311;50.866;4.332;2023-03-04T06:05:56;6.90;99.90
24152;DHT22;12311;50.866;4.332;2023-03-04T06:08:22;6.90;99.90
24152;DHT22;12311;50.866;4.332;2023-03-04T06:10:51;7.00;99.90
24152;DHT22;12311;50.866;4.332;2023-03-04T06:13:17;7.00;99.90
24152;DHT22;12311;50.866;4.332;2023-03-04T06:15:43;7.10;99.90
24152;DHT22;12311;50.866;4.332;2023-03-04T06:18:09;7.10;99.90
24152;DHT22;12311;50.866;4.332;2023-03-04T06:20:35;7.10;99.90
24152;DHT22;12311;50.866;4.332;2023-03-04T06:23:01;7.10;99.90
24152;DHT22;12311;50.866;4.332;2023-03-04T06:25:26;7.00;99.90
24152;DHT22;12311;50.866;4.332;2023-03-04T06:27:52;6.90;99.90
24152;DHT22;12311;50.866;4.332;2023-03-04T06:30:18;6.90;99.90
24152;DHT22;12311;50.866;4.332;2023-03-04T06:32:44;7.10;99.90
24152;DHT22;12311;50.866;4.332;2023-03-04T06:35:11;7.10;99.90
24152;DHT22;12311;50.866;4.332;2023-03-04T06:37:37;7.10;99.90
24152;DHT22;12311;50.866;4.332;2023-03-04T06:40:04;7.00;99.90
24152;DHT22;12311;50.866;4.332;2023-03-04T06:42:30;7.10;99.90
24152;DHT22;12311;50.866;4.332;2023-03-04T06:44:55;7.10;99.90
24152;DHT22;12311;50.866;4.332;2023-03-04T06:47:21;7.00;99.90
24152;DHT22;12311;50.866;4.332;2023-03-04T06:49:47;6.90;99.90
24152;DHT22;12311;50.866;4.332;2023-03-04T06:52:13;7.00;99.90
24152;DHT22;12311;50.866;4.332;2023-03-04T06:54:39;7.00;99.90
24152;DHT22;12311;50.866;4.332;2023-03-04T06:57:06;6.90;99.90
24152;DHT22;12311;50.866;4.332;2023-03-04T06:59:32;7.00;99.90
24152;DHT22;12311;50.866;4.332;2023-03-04T07:01:58;7.10;99.90
24152;DHT22;12311;50.866;4.332;2023-03-04T07:04:23;7.00;99.90
24152;DHT22;12311;50.866;4.332;2023-03-04T07:06:50;7.10;99.90
24152;DHT22;12311;50.866;4.332;2023-03-04T07:09:16;7.20;99.90
24152;DHT22;12311;50.866;4.332;2023-03-04T07:11:42;7.10;99.90
24152;DHT22;12311;50.866;4.332;2023-03-04T07:14:08;7.10;99.90
24152;DHT22;12311;50.866;4.332;2023-03-04T07:16:33;7.20;99.90
24152;DHT22;12311;50.866;4.332;2023-03-04T07:18:59;7.20;99.90
24152;DHT22;12311;50.866;4.332;2023-03-04T07:21:25;7.20;99.90
24152;DHT22;12311;50.866;4.332;2023-03-04T07:23:51;7.10;99.90
24152;DHT22;12311;50.866;4.332;2023-03-04T07:26:17;7.00;99.90
24152;DHT22;12311;50.866;4.332;2023-03-04T07:28:43;7.10;99.90
24152;DHT22;12311;50.866;4.332;2023-03-04T07:31:33;7.10;99.90
24152;DHT22;12311;50.866;4.332;2023-03-04T07:34:05;7.00;99.90
24152;DHT22;12311;50.866;4.332;2023-03-04T07:36:34;7.10;99.90
24152;DHT22;12311;50.866;4.332;2023-03-04T07:39:00;7.00;99.90
24152;DHT22;12311;50.866;4.332;2023-03-04T07:41:27;7.00;99.90
24152;DHT22;12311;50.866;4.332;2023-03-04T07:43:56;7.10;99.90
24152;DHT22;12311;50.866;4.332;2023-03-04T07:46:22;7.00;99.90
24152;DHT22;12311;50.866;4.332;2023-03-04T07:48:48;7.10;99.90
24152;DHT22;12311;50.866;4.332;2023-03-04T07:51:19;7.10;99.90
24152;DHT22;12311;50.866;4.332;2023-03-04T07:53:47;7.20;99.90
24152;DHT22;12311;50.866;4.332;2023-03-04T07:56:19;7.20;99.90
24152;DHT22;12311;50.866;4.332;2023-03-04T07:58:46;7.30;99.90
24152;DHT22;12311;50.866;4.332;2023-03-04T08:01:14;7.50;99.90
24152;DHT22;12311;50.866;4.332;2023-03-04T08:03:40;7.50;99.90
24152;DHT22;12311;50.866;4.332;2023-03-04T08:06:07;7.60;99.90
24152;DHT22;12311;50.866;4.332;2023-03-04T08:08:34;7.50;99.90
24152;DHT22;12311;50.866;4.332;2023-03-04T08:11:04;7.60;99.90
24152;DHT22;12311;50.866;4.332;2023-03-04T08:13:29;7.60;99.90
24152;DHT22;12311;50.866;4.332;2023-03-04T08:15:56;7.60;99.90
24152;DHT22;12311;50.866;4.332;2023-03-04T08:18:22;7.50;99.90
24152;DHT22;12311;50.866;4.332;2023-03-04T08:20:47;7.50;99.90
24152;DHT22;12311;50.866;4.332;2023-03-04T08:23:13;7.50;99.90
24152;DHT22;12311;50.866;4.332;2023-03-04T08:25:40;7.60;99.90
24152;DHT22;12311;50.866;4.332;2023-03-04T08:28:07;7.70;99.90
24152;DHT22;12311;50.866;4.332;2023-03-04T08:30:33;7.70;99.90
24152;DHT22;12311;50.866;4.332;2023-03-04T08:33:00;7.70;99.90
24152;DHT22;12311;50.866;4.332;2023-03-04T08:35:26;7.70;99.90
24152;DHT22;12311;50.866;4.332;2023-03-04T08:37:52;7.60;99.90
24152;DHT22;12311;50.866;4.332;2023-03-04T08:40:18;7.60;99.90
24152;DHT22;12311;50.866;4.332;2023-03-04T08:42:43;7.60;99.90
24152;DHT22;12311;50.866;4.332;2023-03-04T08:45:09;7.50;99.90
24152;DHT22;12311;50.866;4.332;2023-03-04T08:47:35;7.50;99.90
24152;DHT22;12311;50.866;4.332;2023-03-04T08:50:02;7.60;99.90
24152;DHT22;12311;50.866;4.332;2023-03-04T08:52:29;7.70;99.90
24152;DHT22;12311;50.866;4.332;2023-03-04T08:54:55;7.70;99.90
24152;DHT22;12311;50.866;4.332;2023-03-04T08:57:21;7.80;99.90
24152;DHT22;12311;50.866;4.332;2023-03-04T08:59:46;7.90;99.90
24152;DHT22;12311;50.866;4.332;2023-03-04T09:02:12;7.80;99.90
24152;DHT22;12311;50.866;4.332;2023-03-04T09:04:38;7.80;99.90
24152;DHT22;12311;50.866;4.332;2023-03-04T09:07:03;7.70;99.90
24152;DHT22;12311;50.866;4.332;2023-03-04T09:09:30;7.80;99.90
24152;DHT22;12311;50.866;4.332;2023-03-04T09:11:56;7.90;99.90
24152;DHT22;12311;50.866;4.332;2023-03-04T09:14:21;7.90;99.90
24152;DHT22;12311;50.866;4.332;2023-03-04T09:16:47;7.90;99.90
24152;DHT22;12311;50.866;4.332;2023-03-04T09:19:13;7.80;99.90
24152;DHT22;12311;50.866;4.332;2023-03-04T09:21:38;7.70;99.90
24152;DHT22;12311;50.866;4.332;2023-03-04T09:24:04;7.70;99.90
24152;DHT22;12311;50.866;4.332;2023-03-04T09:26:30;7.70;99.90
24152;DHT22;12311;50.866;4.332;2023-03-04T09:28:58;7.70;99.90
24152;DHT22;12311;50.866;4.332;2023-03-04T09:31:25;7.80;99.90
24152;DHT22;12311;50.866;4.332;2023-03-04T09:33:51;7.90;99.90
24152;DHT22;12311;50.866;4.332;2023-03-04T09:36:18;7.60;99.90
24152;DHT22;12311;50.866;4.332;2023-03-04T09:38:44;7.60;99.90
24152;DHT22;12311;50.866;4.332;2023-03-04T09:41:17;7.70;99.90
24152;DHT22;12311;50.866;4.332;2023-03-04T09:43:46;7.80;99.90
24152;DHT22;12311;50.866;4.332;2023-03-04T09:46:30;7.90;99.90
24152;DHT22;12311;50.866;4.332;2023-03-04T09:48:56;7.90;99.90
24152;DHT22;12311;50.866;4.332;2023-03-04T09:54:21;7.80;99.90
24152;DHT22;12311;50.866;4.332;2023-03-04T09:56:58;7.90;99.90
24152;DHT22;12311;50.866;4.332;2023-03-04T09:59:41;8.10;99.90
24152;DHT22;12311;50.866;4.332;2023-03-04T10:05:06;8.00;99.90
24152;DHT22;12311;50.866;4.332;2023-03-04T10:07:40;8.10;99.90
24152;DHT22;12311;50.866;4.332;2023-03-04T10:10:18;8.10;99.90
24152;DHT22;12311;50.866;4.332;2023-03-04T10:12:47;8.20;99.90
24152;DHT22;12311;50.866;4.332;2023-03-04T10:15:39;8.40;99.90
24152;DHT22;12311;50.866;4.332;2023-03-04T10:18:26;8.50;99.90
24152;DHT22;12311;50.866;4.332;2023-03-04T10:21:05;8.40;99.90
24152;DHT22;12311;50.866;4.332;2023-03-04T10:23:34;8.40;99.90
24152;DHT22;12311;50.866;4.332;2023-03-04T10:26:13;8.50;99.90
24152;DHT22;12311;50.866;4.332;2023-03-04T10:28:40;8.50;99.90
24152;DHT22;12311;50.866;4.332;2023-03-04T10:31:26;8.50;99.90
24152;DHT22;12311;50.866;4.332;2023-03-04T10:33:54;8.60;99.90
24152;DHT22;12311;50.866;4.332;2023-03-04T10:39:02;9.00;99.90
24152;DHT22;12311;50.866;4.332;2023-03-04T10:41:30;8.90;99.90
24152;DHT22;12311;50.866;4.332;2023-03-04T10:46:30;8.80;99.90
24152;DHT22;12311;50.866;4.332;2023-03-04T10:48:57;8.70;99.90
24152;DHT22;12311;50.866;4.332;2023-03-04T10:51:28;8.70;99.90
24152;DHT22;12311;50.866;4.332;2023-03-04T10:54:03;8.80;99.90
24152;DHT22;12311;50.866;4.332;2023-03-04T10:56:35;8.80;99.90
24152;DHT22;12311;50.866;4.332;2023-03-04T11:01:50;9.00;99.90
24152;DHT22;12311;50.866;4.332;2023-03-04T11:04:18;9.20;99.90
24152;DHT22;12311;50.866;4.332;2023-03-04T11:06:44;9.10;99.90
24152;DHT22;12311;50.866;4.332;2023-03-04T11:09:30;9.00;99.90
24152;DHT22;12311;50.866;4.332;2023-03-04T11:12:00;9.10;99.90
24152;DHT22;12311;50.866;4.332;2023-03-04T11:14:55;9.20;99.90
24152;DHT22;12311;50.866;4.332;2023-03-04T11:17:26;9.40;99.90
24152;DHT22;12311;50.866;4.332;2023-03-04T11:20:15;9.10;99.90
24152;DHT22;12311;50.866;4.332;2023-03-04T11:22:44;9.10;99.90
24152;DHT22;12311;50.866;4.332;2023-03-04T11:28:09;9.10;99.90
24152;DHT22;12311;50.866;4.332;2023-03-04T11:30:53;9.00;99.90
24152;DHT22;12311;50.866;4.332;2023-03-04T11:36:41;8.90;99.90
24152;DHT22;12311;50.866;4.332;2023-03-04T11:39:17;9.00;99.90
24152;DHT22;12311;50.866;4.332;2023-03-04T11:41:57;9.10;99.90
24152;DHT22;12311;50.866;4.332;2023-03-04T11:44:24;9.30;99.90
24152;DHT22;12311;50.866;4.332;2023-03-04T11:47:41;9.30;99.90
24152;DHT22;12311;50.866;4.332;2023-03-04T11:52:54;9.40;99.90
24152;DHT22;12311;50.866;4.332;2023-03-04T11:55:49;9.40;99.90
24152;DHT22;12311;50.866;4.332;2023-03-04T12:03:59;9.60;99.90
24152;DHT22;12311;50.866;4.332;2023-03-04T12:15:25;9.80;99.90
24152;DHT22;12311;50.866;4.332;2023-03-04T12:23:28;10.10;99.90
24152;DHT22;12311;50.866;4.332;2023-03-04T12:31:33;10.20;99.90
24152;DHT22;12311;50.866;4.332;2023-03-04T12:34:29;10.30;99.90
24152;DHT22;12311;50.866;4.332;2023-03-04T12:37:08;10.50;99.90
24152;DHT22;12311;50.866;4.332;2023-03-04T12:39:39;10.50;99.90
24152;DHT22;12311;50.866;4.332;2023-03-04T12:44:53;10.50;99.90
24152;DHT22;12311;50.866;4.332;2023-03-04T12:55:43;10.70;99.90
24152;DHT22;12311;50.866;4.332;2023-03-04T12:58:22;10.60;99.90
24152;DHT22;12311;50.866;4.332;2023-03-04T13:09:35;10.20;99.90
24152;DHT22;12311;50.866;4.332;2023-03-04T13:12:20;10.10;99.90
24152;DHT22;12311;50.866;4.332;2023-03-04T13:17:43;10.00;99.90
24152;DHT22;12311;50.866;4.332;2023-03-04T13:20:21;10.20;99.90
24152;DHT22;12311;50.866;4.332;2023-03-04T13:23:01;10.10;99.90
24152;DHT22;12311;50.866;4.332;2023-03-04T13:25:39;10.10;99.90
24152;DHT22;12311;50.866;4.332;2023-03-04T13:28:23;10.10;99.90
24152;DHT22;12311;50.866;4.332;2023-03-04T13:41:22;9.70;99.90
24152;DHT22;12311;50.866;4.332;2023-03-04T13:43:53;9.80;99.90
24152;DHT22;12311;50.866;4.332;2023-03-04T13:56:36;10.30;99.90
24152;DHT22;12311;50.866;4.332;2023-03-04T13:59:20;10.20;99.90
24152;DHT22;12311;50.866;4.332;2023-03-04T14:04:22;9.90;99.90
24152;DHT22;12311;50.866;4.332;2023-03-04T14:06:50;9.90;99.90
24152;DHT22;12311;50.866;4.332;2023-03-04T14:09:22;9.90;99.90
24152;DHT22;12311;50.866;4.332;2023-03-04T14:11:50;9.90;99.90
24152;DHT22;12311;50.866;4.332;2023-03-04T14:14:23;9.80;99.90
24152;DHT22;12311;50.866;4.332;2023-03-04T14:16:52;9.70;99.90
24152;DHT22;12311;50.866;4.332;2023-03-04T14:19:27;9.60;99.90
24152;DHT22;12311;50.866;4.332;2023-03-04T14:21:53;9.70;99.90
24152;DHT22;12311;50.866;4.332;2023-03-04T14:24:20;9.70;99.90
24152;DHT22;12311;50.866;4.332;2023-03-04T14:26:47;9.60;99.90
24152;DHT22;12311;50.866;4.332;2023-03-04T14:29:27;9.40;99.90
24152;DHT22;12311;50.866;4.332;2023-03-04T14:31:54;9.40;99.90
24152;DHT22;12311;50.866;4.332;2023-03-04T14:34:35;9.40;99.90
24152;DHT22;12311;50.866;4.332;2023-03-04T14:37:14;9.50;99.90
24152;DHT22;12311;50.866;4.332;2023-03-04T14:39:43;9.50;99.90
24152;DHT22;12311;50.866;4.332;2023-03-04T14:42:11;9.30;99.90
24152;DHT22;12311;50.866;4.332;2023-03-04T14:44:49;9.30;99.90
24152;DHT22;12311;50.866;4.332;2023-03-04T14:47:36;9.40;99.90
24152;DHT22;12311;50.866;4.332;2023-03-04T14:50:11;9.50;99.90
24152;DHT22;12311;50.866;4.332;2023-03-04T14:52:43;9.50;99.90
24152;DHT22;12311;50.866;4.332;2023-03-04T14:57:40;9.50;99.90
24152;DHT22;12311;50.866;4.332;2023-03-04T15:00:26;9.60;99.90
24152;DHT22;12311;50.866;4.332;2023-03-04T15:05:41;9.50;99.90
24152;DHT22;12311;50.866;4.332;2023-03-04T15:08:28;9.40;99.90
24152;DHT22;12311;50.866;4.332;2023-03-04T15:10:59;9.30;99.90
24152;DHT22;12311;50.866;4.332;2023-03-04T15:13:46;9.30;99.90
24152;DHT22;12311;50.866;4.332;2023-03-04T15:16:16;9.50;99.90
24152;DHT22;12311;50.866;4.332;2023-03-04T15:19:03;9.60;99.90
24152;DHT22;12311;50.866;4.332;2023-03-04T15:21:34;9.70;99.90
24152;DHT22;12311;50.866;4.332;2023-03-04T15:24:01;9.80;99.90
24152;DHT22;12311;50.866;4.332;2023-03-04T15:26:30;9.80;99.90
24152;DHT22;12311;50.866;4.332;2023-03-04T15:28:56;10.00;99.90
24152;DHT22;12311;50.866;4.332;2023-03-04T15:31:23;9.90;99.90
24152;DHT22;12311;50.866;4.332;2023-03-04T15:33:50;10.00;99.90
24152;DHT22;12311;50.866;4.332;2023-03-04T15:36:23;10.00;99.90
24152;DHT22;12311;50.866;4.332;2023-03-04T15:38:50;10.00;99.90
24152;DHT22;12311;50.866;4.332;2023-03-04T15:41:20;10.10;99.90
24152;DHT22;12311;50.866;4.332;2023-03-04T15:43:46;9.90;99.90
24152;DHT22;12311;50.866;4.332;2023-03-04T15:46:12;10.00;99.90
24152;DHT22;12311;50.866;4.332;2023-03-04T15:48:38;10.10;99.90
24152;DHT22;12311;50.866;4.332;2023-03-04T15:51:09;10.10;99.90
24152;DHT22;12311;50.866;4.332;2023-03-04T15:53:48;10.10;99.90
24152;DHT22;12311;50.866;4.332;2023-03-04T15:56:24;10.00;99.90
24152;DHT22;12311;50.866;4.332;2023-03-04T15:59:00;10.00;99.90
24152;DHT22;12311;50.866;4.332;2023-03-04T16:01:27;9.90;99.90
24152;DHT22;12311;50.866;4.332;2023-03-04T16:03:52;9.80;99.90
24152;DHT22;12311;50.866;4.332;2023-03-04T16:06:19;9.80;99.90
24152;DHT22;12311;50.866;4.332;2023-03-04T16:08:49;9.70;99.90
24152;DHT22;12311;50.866;4.332;2023-03-04T16:11:26;9.60;99.90
24152;DHT22;12311;50.866;4.332;2023-03-04T16:13:53;9.50;99.90
24152;DHT22;12311;50.866;4.332;2023-03-04T16:16:19;9.40;99.90
24152;DHT22;12311;50.866;4.332;2023-03-04T16:18:44;9.50;99.90
24152;DHT22;12311;50.866;4.332;2023-03-04T16:21:16;9.50;99.90
24152;DHT22;12311;50.866;4.332;2023-03-04T16:23:45;9.40;99.90
24152;DHT22;12311;50.866;4.332;2023-03-04T16:26:16;9.40;99.90
24152;DHT22;12311;50.866;4.332;2023-03-04T16:28:43;9.40;99.90
24152;DHT22;12311;50.866;4.332;2023-03-04T16:31:10;9.40;99.90
24152;DHT22;12311;50.866;4.332;2023-03-04T16:33:36;9.30;99.90
24152;DHT22;12311;50.866;4.332;2023-03-04T16:36:02;9.40;99.90
24152;DHT22;12311;50.866;4.332;2023-03-04T16:38:30;9.30;99.90
24152;DHT22;12311;50.866;4.332;2023-03-04T16:40:58;9.30;99.90
24152;DHT22;12311;50.866;4.332;2023-03-04T16:43:26;9.30;99.90
24152;DHT22;12311;50.866;4.332;2023-03-04T16:45:53;9.30;99.90
24152;DHT22;12311;50.866;4.332;2023-03-04T16:48:19;9.30;99.90
24152;DHT22;12311;50.866;4.332;2023-03-04T16:50:45;9.20;99.90
24152;DHT22;12311;50.866;4.332;2023-03-04T16:53:32;9.20;99.90
24152;DHT22;12311;50.866;4.332;2023-03-04T16:56:08;9.20;99.90
24152;DHT22;12311;50.866;4.332;2023-03-04T16:58:35;9.20;99.90
24152;DHT22;12311;50.866;4.332;2023-03-04T17:01:02;9.20;99.90
24152;DHT22;12311;50.866;4.332;2023-03-04T17:03:27;9.20;99.90
24152;DHT22;12311;50.866;4.332;2023-03-04T17:05:53;9.20;99.90
24152;DHT22;12311;50.866;4.332;2023-03-04T17:08:19;9.20;99.90
24152;DHT22;12311;50.866;4.332;2023-03-04T17:10:44;9.20;99.90
24152;DHT22;12311;50.866;4.332;2023-03-04T17:13:11;9.10;99.90
24152;DHT22;12311;50.866;4.332;2023-03-04T17:15:37;9.10;99.90
24152;DHT22;12311;50.866;4.332;2023-03-04T17:18:02;9.10;99.90
24152;DHT22;12311;50.866;4.332;2023-03-04T17:20:28;9.20;99.90
24152;DHT22;12311;50.866;4.332;2023-03-04T17:22:54;9.00;99.90
24152;DHT22;12311;50.866;4.332;2023-03-04T17:25:19;8.90;99.90
24152;DHT22;12311;50.866;4.332;2023-03-04T17:27:45;8.80;99.90
24152;DHT22;12311;50.866;4.332;2023-03-04T17:30:12;8.80;99.90
24152;DHT22;12311;50.866;4.332;2023-03-04T17:32:39;8.70;99.90
24152;DHT22;12311;50.866;4.332;2023-03-04T17:35:06;8.60;99.90
24152;DHT22;12311;50.866;4.332;2023-03-04T17:37:32;8.70;99.90
24152;DHT22;12311;50.866;4.332;2023-03-04T17:40:03;8.80;99.90
24152;DHT22;12311;50.866;4.332;2023-03-04T17:42:29;8.70;99.90
24152;DHT22;12311;50.866;4.332;2023-03-04T17:44:55;8.80;99.90
24152;DHT22;12311;50.866;4.332;2023-03-04T17:47:20;8.80;99.90
24152;DHT22;12311;50.866;4.332;2023-03-04T17:49:47;8.80;99.90
24152;DHT22;12311;50.866;4.332;2023-03-04T17:52:13;8.70;99.90
24152;DHT22;12311;50.866;4.332;2023-03-04T17:54:38;8.70;99.90
24152;DHT22;12311;50.866;4.332;2023-03-04T17:57:04;8.70;99.90
24152;DHT22;12311;50.866;4.332;2023-03-04T17:59:30;8.70;99.90
24152;DHT22;12311;50.866;4.332;2023-03-04T18:01:56;8.60;99.90
24152;DHT22;12311;50.866;4.332;2023-03-04T18:04:21;8.60;99.90
24152;DHT22;12311;50.866;4.332;2023-03-04T18:06:47;8.60;99.90
24152;DHT22;12311;50.866;4.332;2023-03-04T18:09:13;8.60;99.90
24152;DHT22;12311;50.866;4.332;2023-03-04T18:11:40;8.70;99.90
24152;DHT22;12311;50.866;4.332;2023-03-04T18:14:06;8.50;99.90
24152;DHT22;12311;50.866;4.332;2023-03-04T18:16:32;8.50;99.90
24152;DHT22;12311;50.866;4.332;2023-03-04T18:18:59;8.40;99.90
24152;DHT22;12311;50.866;4.332;2023-03-04T18:21:27;8.40;99.90
24152;DHT22;12311;50.866;4.332;2023-03-04T18:23:53;8.40;99.90
24152;DHT22;12311;50.866;4.332;2023-03-04T18:26:20;8.40;99.90
24152;DHT22;12311;50.866;4.332;2023-03-04T18:28:48;8.40;99.90
24152;DHT22;12311;50.866;4.332;2023-03-04T18:31:20;8.40;99.90
24152;DHT22;12311;50.866;4.332;2023-03-04T18:33:46;8.40;99.90
24152;DHT22;12311;50.866;4.332;2023-03-04T18:36:11;8.40;99.90
24152;DHT22;12311;50.866;4.332;2023-03-04T18:38:38;8.30;99.90
24152;DHT22;12311;50.866;4.332;2023-03-04T18:41:06;8.40;99.90
24152;DHT22;12311;50.866;4.332;2023-03-04T18:43:33;8.30;99.90
24152;DHT22;12311;50.866;4.332;2023-03-04T18:46:09;8.20;99.90
24152;DHT22;12311;50.866;4.332;2023-03-04T18:48:48;8.20;99.90
24152;DHT22;12311;50.866;4.332;2023-03-04T18:51:15;8.20;99.90
24152;DHT22;12311;50.866;4.332;2023-03-04T18:53:40;8.20;99.90
24152;DHT22;12311;50.866;4.332;2023-03-04T18:56:10;8.20;99.90
24152;DHT22;12311;50.866;4.332;2023-03-04T18:58:38;8.20;99.90
24152;DHT22;12311;50.866;4.332;2023-03-04T19:01:06;8.10;99.90
24152;DHT22;12311;50.866;4.332;2023-03-04T19:03:35;8.00;99.90
24152;DHT22;12311;50.866;4.332;2023-03-04T19:06:03;8.20;99.90
24152;DHT22;12311;50.866;4.332;2023-03-04T19:08:29;8.10;99.90
24152;DHT22;12311;50.866;4.332;2023-03-04T19:10:55;8.00;99.90
24152;DHT22;12311;50.866;4.332;2023-03-04T19:13:21;7.90;99.90
24152;DHT22;12311;50.866;4.332;2023-03-04T19:15:51;7.90;99.90
24152;DHT22;12311;50.866;4.332;2023-03-04T19:18:17;7.90;99.90
24152;DHT22;12311;50.866;4.332;2023-03-04T19:20:43;7.90;99.90
24152;DHT22;12311;50.866;4.332;2023-03-04T19:23:10;7.90;99.90
24152;DHT22;12311;50.866;4.332;2023-03-04T19:25:38;7.80;99.90
24152;DHT22;12311;50.866;4.332;2023-03-04T19:28:04;7.80;99.90
24152;DHT22;12311;50.866;4.332;2023-03-04T19:30:30;7.90;99.90
24152;DHT22;12311;50.866;4.332;2023-03-04T19:32:56;7.90;99.90
24152;DHT22;12311;50.866;4.332;2023-03-04T19:35:22;7.90;99.90
24152;DHT22;12311;50.866;4.332;2023-03-04T19:37:47;7.80;99.90
24152;DHT22;12311;50.866;4.332;2023-03-04T19:40:13;7.80;99.90
24152;DHT22;12311;50.866;4.332;2023-03-04T19:42:39;7.90;99.90
24152;DHT22;12311;50.866;4.332;2023-03-04T19:45:05;7.80;99.90
24152;DHT22;12311;50.866;4.332;2023-03-04T19:47:40;7.80;99.90
24152;DHT22;12311;50.866;4.332;2023-03-04T19:50:08;7.70;99.90
24152;DHT22;12311;50.866;4.332;2023-03-04T19:52:34;7.70;99.90
24152;DHT22;12311;50.866;4.332;2023-03-04T19:55:00;7.60;99.90
24152;DHT22;12311;50.866;4.332;2023-03-04T19:57:26;7.70;99.90
24152;DHT22;12311;50.866;4.332;2023-03-04T19:59:52;7.80;99.90
24152;DHT22;12311;50.866;4.332;2023-03-04T20:02:17;7.70;99.90
24152;DHT22;12311;50.866;4.332;2023-03-04T20:04:43;7.80;99.90
24152;DHT22;12311;50.866;4.332;2023-03-04T20:07:09;7.80;99.90
24152;DHT22;12311;50.866;4.332;2023-03-04T20:09:34;7.90;99.90
24152;DHT22;12311;50.866;4.332;2023-03-04T20:12:03;7.90;99.90
24152;DHT22;12311;50.866;4.332;2023-03-04T20:14:31;7.80;99.90
24152;DHT22;12311;50.866;4.332;2023-03-04T20:16:59;7.80;99.90
24152;DHT22;12311;50.866;4.332;2023-03-04T20:19:29;7.80;99.90
24152;DHT22;12311;50.866;4.332;2023-03-04T20:21:56;7.80;99.90
24152;DHT22;12311;50.866;4.332;2023-03-04T20:24:23;7.90;99.90
24152;DHT22;12311;50.866;4.332;2023-03-04T20:26:49;7.80;99.90
24152;DHT22;12311;50.866;4.332;2023-03-04T20:29:15;7.80;99.90
24152;DHT22;12311;50.866;4.332;2023-03-04T20:31:40;7.70;99.90
24152;DHT22;12311;50.866;4.332;2023-03-04T20:34:09;7.70;99.90
24152;DHT22;12311;50.866;4.332;2023-03-04T20:36:35;7.80;99.90
24152;DHT22;12311;50.866;4.332;2023-03-04T20:39:04;7.80;99.90
24152;DHT22;12311;50.866;4.332;2023-03-04T20:41:31;7.90;99.90
24152;DHT22;12311;50.866;4.332;2023-03-04T20:43:56;7.80;99.90
24152;DHT22;12311;50.866;4.332;2023-03-04T20:46:43;7.60;99.90
24152;DHT22;12311;50.866;4.332;2023-03-04T20:49:22;7.60;99.90
24152;DHT22;12311;50.866;4.332;2023-03-04T20:51:53;7.60;99.90
24152;DHT22;12311;50.866;4.332;2023-03-04T20:54:20;7.60;99.90
24152;DHT22;12311;50.866;4.332;2023-03-04T20:56:46;7.70;99.90
24152;DHT22;12311;50.866;4.332;2023-03-04T20:59:12;7.60;99.90
24152;DHT22;12311;50.866;4.332;2023-03-04T21:01:41;7.50;99.90
24152;DHT22;12311;50.866;4.332;2023-03-04T21:04:07;7.50;99.90
24152;DHT22;12311;50.866;4.332;2023-03-04T21:06:33;7.50;99.90
24152;DHT22;12311;50.866;4.332;2023-03-04T21:09:01;7.50;99.90
24152;DHT22;12311;50.866;4.332;2023-03-04T21:11:27;7.60;99.90
24152;DHT22;12311;50.866;4.332;2023-03-04T21:13:52;7.70;99.90
24152;DHT22;12311;50.866;4.332;2023-03-04T21:16:23;7.70;99.90
24152;DHT22;12311;50.866;4.332;2023-03-04T21:18:49;7.80;99.90
24152;DHT22;12311;50.866;4.332;2023-03-04T21:21:26;7.70;99.90
24152;DHT22;12311;50.866;4.332;2023-03-04T21:23:53;7.70;99.90
24152;DHT22;12311;50.866;4.332;2023-03-04T21:26:19;7.70;99.90
24152;DHT22;12311;50.866;4.332;2023-03-04T21:28:46;7.70;99.90
24152;DHT22;12311;50.866;4.332;2023-03-04T21:31:19;7.70;99.90
